sensor_id;sensor_type;location;lat;lon;timestamp;P1;durP1;ratioP1;P2;durP2;ratioP2
25657;SDS011;13517;59.320;18.042;2023-04-06T00:01:36;16.15;;;7.03;;
25657;SDS011;13517;59.320;18.042;2023-04-06T00:04:01;15.18;;;6.38;;
25657;SDS011;13517;59.320;18.042;2023-04-06T00:06:26;15.20;;;6.72;;
25657;SDS011;13517;59.320;18.042;2023-04-06T00:08:52;20.10;;;6.57;;
25657;SDS011;13517;59.320;18.042;2023-04-06T00:11:17;12.18;;;6.82;;
25657;SDS011;13517;59.320;18.042;2023-04-06T00:13:43;18.33;;;7.10;;
25657;SDS011;13517;59.320;18.042;2023-04-06T00:16:08;16.63;;;7.22;;
25657;SDS011;13517;59.320;18.042;2023-04-06T00:18:35;15.27;;;7.45;;
25657;SDS011;13517;59.320;18.042;2023-04-06T00:21:00;14.63;;;7.50;;
25657;SDS011;13517;59.320;18.042;2023-04-06T00:23:26;15.90;;;6.90;;
25657;SDS011;13517;59.320;18.042;2023-04-06T00:25:51;14.10;;;7.35;;
25657;SDS011;13517;59.320;18.042;2023-04-06T00:28:16;14.43;;;6.80;;
25657;SDS011;13517;59.320;18.042;2023-04-06T00:30:42;14.18;;;7.18;;
25657;SDS011;13517;59.320;18.042;2023-04-06T00:33:07;17.70;;;7.20;;
25657;SDS011;13517;59.320;18.042;2023-04-06T00:35:33;17.15;;;7.10;;
25657;SDS011;13517;59.320;18.042;2023-04-06T00:37:58;18.05;;;8.27;;
25657;SDS011;13517;59.320;18.042;2023-04-06T00:40:23;14.90;;;7.55;;
25657;SDS011;13517;59.320;18.042;2023-04-06T00:42:48;13.00;;;6.97;;
25657;SDS011;13517;59.320;18.042;2023-04-06T00:45:14;13.10;;;6.88;;
25657;SDS011;13517;59.320;18.042;2023-04-06T00:47:39;12.25;;;7.35;;
25657;SDS011;13517;59.320;18.042;2023-04-06T00:50:05;18.23;;;6.95;;
25657;SDS011;13517;59.320;18.042;2023-04-06T00:52:30;19.90;;;7.35;;
25657;SDS011;13517;59.320;18.042;2023-04-06T00:54:55;18.23;;;7.68;;
25657;SDS011;13517;59.320;18.042;2023-04-06T00:57:21;21.23;;;7.80;;
25657;SDS011;13517;59.320;18.042;2023-04-06T00:59:46;19.67;;;7.15;;
25657;SDS011;13517;59.320;18.042;2023-04-06T01:02:11;17.77;;;7.13;;
25657;SDS011;13517;59.320;18.042;2023-04-06T01:04:37;17.83;;;7.55;;
25657;SDS011;13517;59.320;18.042;2023-04-06T01:07:02;21.25;;;8.18;;
25657;SDS011;13517;59.320;18.042;2023-04-06T01:09:28;25.77;;;7.60;;
25657;SDS011;13517;59.320;18.042;2023-04-06T01:11:54;18.92;;;8.43;;
25657;SDS011;13517;59.320;18.042;2023-04-06T01:14:21;14.68;;;7.80;;
25657;SDS011;13517;59.320;18.042;2023-04-06T01:16:46;13.93;;;7.07;;
25657;SDS011;13517;59.320;18.042;2023-04-06T01:19:12;17.23;;;7.47;;
25657;SDS011;13517;59.320;18.042;2023-04-06T01:21:37;18.02;;;8.43;;
25657;SDS011;13517;59.320;18.042;2023-04-06T01:24:03;19.35;;;7.90;;
25657;SDS011;13517;59.320;18.042;2023-04-06T01:26:29;17.52;;;7.82;;
25657;SDS011;13517;59.320;18.042;2023-04-06T01:28:54;15.98;;;8.52;;
25657;SDS011;13517;59.320;18.042;2023-04-06T01:31:20;21.83;;;7.82;;
25657;SDS011;13517;59.320;18.042;2023-04-06T01:33:45;14.38;;;7.53;;
25657;SDS011;13517;59.320;18.042;2023-04-06T01:36:11;17.08;;;7.78;;
25657;SDS011;13517;59.320;18.042;2023-04-06T01:38:37;17.35;;;7.85;;
25657;SDS011;13517;59.320;18.042;2023-04-06T01:41:02;21.40;;;7.85;;
25657;SDS011;13517;59.320;18.042;2023-04-06T01:43:27;17.13;;;7.35;;
25657;SDS011;13517;59.320;18.042;2023-04-06T01:45:52;18.40;;;8.02;;
25657;SDS011;13517;59.320;18.042;2023-04-06T01:48:18;14.52;;;7.57;;
25657;SDS011;13517;59.320;18.042;2023-04-06T01:50:43;14.90;;;7.20;;
25657;SDS011;13517;59.320;18.042;2023-04-06T01:53:08;15.85;;;6.70;;
25657;SDS011;13517;59.320;18.042;2023-04-06T01:55:34;14.35;;;6.55;;
25657;SDS011;13517;59.320;18.042;2023-04-06T01:57:59;17.27;;;7.68;;
25657;SDS011;13517;59.320;18.042;2023-04-06T02:00:25;17.25;;;6.75;;
25657;SDS011;13517;59.320;18.042;2023-04-06T02:02:50;11.50;;;6.25;;
25657;SDS011;13517;59.320;18.042;2023-04-06T02:05:15;14.38;;;6.82;;
25657;SDS011;13517;59.320;18.042;2023-04-06T02:07:41;13.90;;;6.50;;
25657;SDS011;13517;59.320;18.042;2023-04-06T02:10:10;15.82;;;6.15;;
25657;SDS011;13517;59.320;18.042;2023-04-06T02:12:36;10.82;;;5.85;;
25657;SDS011;13517;59.320;18.042;2023-04-06T02:15:01;15.20;;;6.70;;
25657;SDS011;13517;59.320;18.042;2023-04-06T02:17:26;13.23;;;6.70;;
25657;SDS011;13517;59.320;18.042;2023-04-06T02:19:52;12.80;;;6.22;;
25657;SDS011;13517;59.320;18.042;2023-04-06T02:22:17;12.27;;;6.05;;
25657;SDS011;13517;59.320;18.042;2023-04-06T02:24:42;12.48;;;6.22;;
25657;SDS011;13517;59.320;18.042;2023-04-06T02:27:08;17.88;;;6.85;;
25657;SDS011;13517;59.320;18.042;2023-04-06T02:29:33;12.77;;;6.45;;
25657;SDS011;13517;59.320;18.042;2023-04-06T02:31:58;13.30;;;6.45;;
25657;SDS011;13517;59.320;18.042;2023-04-06T02:34:23;10.40;;;6.13;;
25657;SDS011;13517;59.320;18.042;2023-04-06T02:36:49;12.75;;;5.90;;
25657;SDS011;13517;59.320;18.042;2023-04-06T02:39:14;9.77;;;6.38;;
25657;SDS011;13517;59.320;18.042;2023-04-06T02:41:40;9.88;;;5.40;;
25657;SDS011;13517;59.320;18.042;2023-04-06T02:44:06;10.23;;;5.75;;
25657;SDS011;13517;59.320;18.042;2023-04-06T02:46:32;13.15;;;6.07;;
25657;SDS011;13517;59.320;18.042;2023-04-06T02:48:57;11.43;;;5.80;;
25657;SDS011;13517;59.320;18.042;2023-04-06T02:51:25;13.75;;;5.93;;
25657;SDS011;13517;59.320;18.042;2023-04-06T02:53:50;11.75;;;5.75;;
25657;SDS011;13517;59.320;18.042;2023-04-06T02:56:16;8.77;;;5.38;;
25657;SDS011;13517;59.320;18.042;2023-04-06T02:58:41;14.00;;;7.15;;
25657;SDS011;13517;59.320;18.042;2023-04-06T03:01:06;11.82;;;5.22;;
25657;SDS011;13517;59.320;18.042;2023-04-06T03:03:31;12.63;;;5.28;;
25657;SDS011;13517;59.320;18.042;2023-04-06T03:05:57;10.13;;;5.15;;
25657;SDS011;13517;59.320;18.042;2023-04-06T03:08:23;14.43;;;6.05;;
25657;SDS011;13517;59.320;18.042;2023-04-06T03:10:49;13.25;;;5.75;;
25657;SDS011;13517;59.320;18.042;2023-04-06T03:13:14;10.43;;;5.25;;
25657;SDS011;13517;59.320;18.042;2023-04-06T03:15:39;9.82;;;5.32;;
25657;SDS011;13517;59.320;18.042;2023-04-06T03:18:05;9.15;;;5.63;;
25657;SDS011;13517;59.320;18.042;2023-04-06T03:20:30;8.60;;;5.18;;
25657;SDS011;13517;59.320;18.042;2023-04-06T03:22:55;11.77;;;5.45;;
25657;SDS011;13517;59.320;18.042;2023-04-06T03:25:20;15.98;;;5.57;;
25657;SDS011;13517;59.320;18.042;2023-04-06T03:27:46;12.32;;;5.32;;
25657;SDS011;13517;59.320;18.042;2023-04-06T03:30:11;11.77;;;5.65;;
25657;SDS011;13517;59.320;18.042;2023-04-06T03:32:36;8.60;;;5.22;;
25657;SDS011;13517;59.320;18.042;2023-04-06T03:35:02;9.82;;;5.45;;
25657;SDS011;13517;59.320;18.042;2023-04-06T03:37:27;12.77;;;5.45;;
25657;SDS011;13517;59.320;18.042;2023-04-06T03:39:52;11.15;;;5.45;;
25657;SDS011;13517;59.320;18.042;2023-04-06T03:42:18;10.20;;;5.80;;
25657;SDS011;13517;59.320;18.042;2023-04-06T03:44:43;13.73;;;5.35;;
25657;SDS011;13517;59.320;18.042;2023-04-06T03:47:08;12.52;;;5.53;;
25657;SDS011;13517;59.320;18.042;2023-04-06T03:49:34;13.45;;;5.60;;
25657;SDS011;13517;59.320;18.042;2023-04-06T03:52:00;9.98;;;5.45;;
25657;SDS011;13517;59.320;18.042;2023-04-06T03:54:25;13.48;;;6.05;;
25657;SDS011;13517;59.320;18.042;2023-04-06T03:56:50;12.00;;;5.50;;
25657;SDS011;13517;59.320;18.042;2023-04-06T03:59:16;10.40;;;5.72;;
25657;SDS011;13517;59.320;18.042;2023-04-06T04:01:41;13.55;;;5.65;;
25657;SDS011;13517;59.320;18.042;2023-04-06T04:04:06;13.10;;;5.65;;
25657;SDS011;13517;59.320;18.042;2023-04-06T04:06:32;10.18;;;6.03;;
25657;SDS011;13517;59.320;18.042;2023-04-06T04:08:57;10.90;;;5.38;;
25657;SDS011;13517;59.320;18.042;2023-04-06T04:11:22;15.30;;;5.95;;
25657;SDS011;13517;59.320;18.042;2023-04-06T04:13:47;8.88;;;4.88;;
25657;SDS011;13517;59.320;18.042;2023-04-06T04:16:13;10.65;;;5.07;;
25657;SDS011;13517;59.320;18.042;2023-04-06T04:18:38;11.07;;;5.03;;
25657;SDS011;13517;59.320;18.042;2023-04-06T04:21:03;10.05;;;5.18;;
25657;SDS011;13517;59.320;18.042;2023-04-06T04:23:28;10.27;;;5.47;;
25657;SDS011;13517;59.320;18.042;2023-04-06T04:25:54;10.20;;;5.47;;
25657;SDS011;13517;59.320;18.042;2023-04-06T04:28:19;8.00;;;4.90;;
25657;SDS011;13517;59.320;18.042;2023-04-06T04:30:45;13.40;;;5.75;;
25657;SDS011;13517;59.320;18.042;2023-04-06T04:33:10;14.05;;;6.00;;
25657;SDS011;13517;59.320;18.042;2023-04-06T04:35:36;12.30;;;5.40;;
25657;SDS011;13517;59.320;18.042;2023-04-06T04:38:01;13.10;;;6.15;;
25657;SDS011;13517;59.320;18.042;2023-04-06T04:40:26;11.98;;;5.47;;
25657;SDS011;13517;59.320;18.042;2023-04-06T04:42:52;8.73;;;5.18;;
25657;SDS011;13517;59.320;18.042;2023-04-06T04:45:17;12.00;;;5.55;;
25657;SDS011;13517;59.320;18.042;2023-04-06T04:47:42;10.40;;;5.55;;
25657;SDS011;13517;59.320;18.042;2023-04-06T04:50:07;8.68;;;5.05;;
25657;SDS011;13517;59.320;18.042;2023-04-06T04:52:33;12.60;;;5.28;;
25657;SDS011;13517;59.320;18.042;2023-04-06T04:54:58;9.40;;;4.97;;
25657;SDS011;13517;59.320;18.042;2023-04-06T04:57:23;12.07;;;6.00;;
25657;SDS011;13517;59.320;18.042;2023-04-06T04:59:49;9.27;;;5.50;;
25657;SDS011;13517;59.320;18.042;2023-04-06T05:02:15;9.30;;;5.78;;
25657;SDS011;13517;59.320;18.042;2023-04-06T05:04:41;13.18;;;5.95;;
25657;SDS011;13517;59.320;18.042;2023-04-06T05:07:06;8.65;;;5.00;;
25657;SDS011;13517;59.320;18.042;2023-04-06T05:09:32;9.75;;;4.75;;
25657;SDS011;13517;59.320;18.042;2023-04-06T05:11:58;11.02;;;4.93;;
25657;SDS011;13517;59.320;18.042;2023-04-06T05:14:23;12.63;;;5.65;;
25657;SDS011;13517;59.320;18.042;2023-04-06T05:16:48;8.35;;;5.30;;
25657;SDS011;13517;59.320;18.042;2023-04-06T05:19:14;8.52;;;5.13;;
25657;SDS011;13517;59.320;18.042;2023-04-06T05:21:39;10.95;;;5.55;;
25657;SDS011;13517;59.320;18.042;2023-04-06T05:24:05;9.40;;;4.97;;
25657;SDS011;13517;59.320;18.042;2023-04-06T05:26:30;7.55;;;4.43;;
25657;SDS011;13517;59.320;18.042;2023-04-06T05:28:56;13.27;;;5.20;;
25657;SDS011;13517;59.320;18.042;2023-04-06T05:31:21;9.82;;;4.97;;
25657;SDS011;13517;59.320;18.042;2023-04-06T05:33:46;8.05;;;5.07;;
25657;SDS011;13517;59.320;18.042;2023-04-06T05:36:11;6.78;;;4.93;;
25657;SDS011;13517;59.320;18.042;2023-04-06T05:38:37;6.95;;;4.63;;
25657;SDS011;13517;59.320;18.042;2023-04-06T05:41:02;9.82;;;4.72;;
25657;SDS011;13517;59.320;18.042;2023-04-06T05:43:27;8.90;;;4.82;;
25657;SDS011;13517;59.320;18.042;2023-04-06T05:45:53;8.80;;;5.07;;
25657;SDS011;13517;59.320;18.042;2023-04-06T05:48:18;9.65;;;4.88;;
25657;SDS011;13517;59.320;18.042;2023-04-06T05:50:46;10.00;;;5.38;;
25657;SDS011;13517;59.320;18.042;2023-04-06T05:53:12;8.90;;;4.88;;
25657;SDS011;13517;59.320;18.042;2023-04-06T05:55:37;10.35;;;5.25;;
25657;SDS011;13517;59.320;18.042;2023-04-06T05:58:02;5.65;;;3.97;;
25657;SDS011;13517;59.320;18.042;2023-04-06T06:00:28;11.63;;;4.38;;
25657;SDS011;13517;59.320;18.042;2023-04-06T06:02:53;6.57;;;4.22;;
25657;SDS011;13517;59.320;18.042;2023-04-06T06:05:18;8.13;;;4.35;;
25657;SDS011;13517;59.320;18.042;2023-04-06T06:07:43;7.63;;;4.40;;
25657;SDS011;13517;59.320;18.042;2023-04-06T06:10:09;7.53;;;4.00;;
25657;SDS011;13517;59.320;18.042;2023-04-06T06:12:35;7.80;;;4.60;;
25657;SDS011;13517;59.320;18.042;2023-04-06T06:15:00;6.65;;;4.00;;
25657;SDS011;13517;59.320;18.042;2023-04-06T06:17:25;10.00;;;4.00;;
25657;SDS011;13517;59.320;18.042;2023-04-06T06:19:50;6.07;;;3.60;;
25657;SDS011;13517;59.320;18.042;2023-04-06T06:22:16;5.95;;;4.00;;
25657;SDS011;13517;59.320;18.042;2023-04-06T06:24:41;8.90;;;4.55;;
25657;SDS011;13517;59.320;18.042;2023-04-06T06:27:07;8.77;;;4.78;;
25657;SDS011;13517;59.320;18.042;2023-04-06T06:29:32;7.55;;;4.28;;
25657;SDS011;13517;59.320;18.042;2023-04-06T06:31:58;8.23;;;4.45;;
25657;SDS011;13517;59.320;18.042;2023-04-06T06:34:23;7.13;;;4.38;;
25657;SDS011;13517;59.320;18.042;2023-04-06T06:36:48;7.15;;;4.25;;
25657;SDS011;13517;59.320;18.042;2023-04-06T06:39:13;7.10;;;4.40;;
25657;SDS011;13517;59.320;18.042;2023-04-06T06:41:39;5.20;;;4.18;;
25657;SDS011;13517;59.320;18.042;2023-04-06T06:44:05;8.85;;;4.88;;
25657;SDS011;13517;59.320;18.042;2023-04-06T06:46:30;12.02;;;4.60;;
25657;SDS011;13517;59.320;18.042;2023-04-06T06:48:56;7.35;;;4.53;;
25657;SDS011;13517;59.320;18.042;2023-04-06T06:51:22;8.23;;;4.00;;
25657;SDS011;13517;59.320;18.042;2023-04-06T06:53:47;5.32;;;3.88;;
25657;SDS011;13517;59.320;18.042;2023-04-06T06:56:12;5.90;;;4.32;;
25657;SDS011;13517;59.320;18.042;2023-04-06T06:58:38;10.20;;;4.78;;
25657;SDS011;13517;59.320;18.042;2023-04-06T07:01:03;8.40;;;4.55;;
25657;SDS011;13517;59.320;18.042;2023-04-06T07:03:30;9.50;;;4.55;;
25657;SDS011;13517;59.320;18.042;2023-04-06T07:05:55;8.80;;;5.20;;
25657;SDS011;13517;59.320;18.042;2023-04-06T07:08:21;7.60;;;4.80;;
25657;SDS011;13517;59.320;18.042;2023-04-06T07:10:47;8.00;;;5.32;;
25657;SDS011;13517;59.320;18.042;2023-04-06T07:13:12;8.30;;;4.95;;
25657;SDS011;13517;59.320;18.042;2023-04-06T07:15:43;7.72;;;4.90;;
25657;SDS011;13517;59.320;18.042;2023-04-06T07:18:08;10.63;;;5.47;;
25657;SDS011;13517;59.320;18.042;2023-04-06T07:20:33;7.28;;;4.53;;
25657;SDS011;13517;59.320;18.042;2023-04-06T07:22:58;7.40;;;4.65;;
25657;SDS011;13517;59.320;18.042;2023-04-06T07:25:24;10.38;;;5.38;;
25657;SDS011;13517;59.320;18.042;2023-04-06T07:27:49;8.15;;;4.90;;
25657;SDS011;13517;59.320;18.042;2023-04-06T07:30:15;7.25;;;4.30;;
25657;SDS011;13517;59.320;18.042;2023-04-06T07:32:40;8.25;;;4.65;;
25657;SDS011;13517;59.320;18.042;2023-04-06T07:35:05;9.38;;;4.75;;
25657;SDS011;13517;59.320;18.042;2023-04-06T07:37:31;8.25;;;4.35;;
25657;SDS011;13517;59.320;18.042;2023-04-06T07:39:56;5.60;;;4.03;;
25657;SDS011;13517;59.320;18.042;2023-04-06T07:42:21;9.80;;;4.65;;
25657;SDS011;13517;59.320;18.042;2023-04-06T07:44:47;8.75;;;4.75;;
25657;SDS011;13517;59.320;18.042;2023-04-06T07:47:13;6.53;;;3.95;;
25657;SDS011;13517;59.320;18.042;2023-04-06T07:49:38;5.75;;;4.22;;
25657;SDS011;13517;59.320;18.042;2023-04-06T07:52:03;8.57;;;4.30;;
25657;SDS011;13517;59.320;18.042;2023-04-06T07:54:29;9.45;;;4.20;;
25657;SDS011;13517;59.320;18.042;2023-04-06T07:56:54;6.88;;;3.53;;
25657;SDS011;13517;59.320;18.042;2023-04-06T07:59:19;5.85;;;4.00;;
25657;SDS011;13517;59.320;18.042;2023-04-06T08:01:45;6.47;;;4.00;;
25657;SDS011;13517;59.320;18.042;2023-04-06T08:04:10;5.93;;;3.40;;
25657;SDS011;13517;59.320;18.042;2023-04-06T08:06:35;5.95;;;3.28;;
25657;SDS011;13517;59.320;18.042;2023-04-06T08:09:01;9.93;;;4.07;;
25657;SDS011;13517;59.320;18.042;2023-04-06T08:11:27;4.93;;;3.33;;
25657;SDS011;13517;59.320;18.042;2023-04-06T08:13:52;5.25;;;3.08;;
25657;SDS011;13517;59.320;18.042;2023-04-06T08:16:18;7.03;;;3.53;;
25657;SDS011;13517;59.320;18.042;2023-04-06T08:18:43;6.22;;;3.30;;
25657;SDS011;13517;59.320;18.042;2023-04-06T08:21:08;5.15;;;3.13;;
25657;SDS011;13517;59.320;18.042;2023-04-06T08:23:34;3.78;;;2.60;;
25657;SDS011;13517;59.320;18.042;2023-04-06T08:25:59;3.80;;;2.60;;
25657;SDS011;13517;59.320;18.042;2023-04-06T08:28:24;4.70;;;2.83;;
25657;SDS011;13517;59.320;18.042;2023-04-06T08:30:49;10.32;;;2.75;;
25657;SDS011;13517;59.320;18.042;2023-04-06T08:33:15;3.60;;;2.70;;
25657;SDS011;13517;59.320;18.042;2023-04-06T08:35:40;6.90;;;2.75;;
25657;SDS011;13517;59.320;18.042;2023-04-06T08:38:06;6.78;;;4.53;;
25657;SDS011;13517;59.320;18.042;2023-04-06T08:40:35;7.68;;;3.20;;
25657;SDS011;13517;59.320;18.042;2023-04-06T08:43:01;6.28;;;4.55;;
25657;SDS011;13517;59.320;18.042;2023-04-06T08:45:28;5.43;;;2.78;;
25657;SDS011;13517;59.320;18.042;2023-04-06T08:47:54;8.10;;;3.05;;
25657;SDS011;13517;59.320;18.042;2023-04-06T08:50:20;2.88;;;2.50;;
25657;SDS011;13517;59.320;18.042;2023-04-06T08:52:49;2.80;;;2.15;;
25657;SDS011;13517;59.320;18.042;2023-04-06T08:55:14;2.55;;;2.33;;
25657;SDS011;13517;59.320;18.042;2023-04-06T08:57:40;5.00;;;2.47;;
25657;SDS011;13517;59.320;18.042;2023-04-06T09:00:06;5.53;;;2.63;;
25657;SDS011;13517;59.320;18.042;2023-04-06T09:02:31;3.97;;;2.42;;
25657;SDS011;13517;59.320;18.042;2023-04-06T09:04:57;3.58;;;2.22;;
25657;SDS011;13517;59.320;18.042;2023-04-06T09:07:22;2.03;;;1.75;;
25657;SDS011;13517;59.320;18.042;2023-04-06T09:09:48;2.95;;;1.95;;
25657;SDS011;13517;59.320;18.042;2023-04-06T09:17:23;3.40;;;2.15;;
25657;SDS011;13517;59.320;18.042;2023-04-06T09:19:49;4.63;;;2.17;;
25657;SDS011;13517;59.320;18.042;2023-04-06T09:22:14;6.20;;;2.60;;
25657;SDS011;13517;59.320;18.042;2023-04-06T09:24:41;4.22;;;2.50;;
25657;SDS011;13517;59.320;18.042;2023-04-06T09:27:06;3.15;;;2.10;;
25657;SDS011;13517;59.320;18.042;2023-04-06T09:29:32;6.13;;;2.28;;
25657;SDS011;13517;59.320;18.042;2023-04-06T09:32:01;6.00;;;2.47;;
25657;SDS011;13517;59.320;18.042;2023-04-06T09:34:27;3.50;;;2.28;;
25657;SDS011;13517;59.320;18.042;2023-04-06T09:36:52;2.78;;;2.40;;
25657;SDS011;13517;59.320;18.042;2023-04-06T09:39:20;4.03;;;2.15;;
25657;SDS011;13517;59.320;18.042;2023-04-06T09:41:48;3.97;;;2.35;;
25657;SDS011;13517;59.320;18.042;2023-04-06T09:44:13;4.53;;;2.15;;
25657;SDS011;13517;59.320;18.042;2023-04-06T09:46:40;3.25;;;2.40;;
25657;SDS011;13517;59.320;18.042;2023-04-06T09:49:06;5.50;;;2.22;;
25657;SDS011;13517;59.320;18.042;2023-04-06T09:54:00;5.50;;;2.53;;
25657;SDS011;13517;59.320;18.042;2023-04-06T09:56:28;4.80;;;2.47;;
25657;SDS011;13517;59.320;18.042;2023-04-06T09:58:57;2.90;;;1.92;;
25657;SDS011;13517;59.320;18.042;2023-04-06T10:01:26;4.63;;;2.15;;
25657;SDS011;13517;59.320;18.042;2023-04-06T10:06:31;4.43;;;2.22;;
25657;SDS011;13517;59.320;18.042;2023-04-06T10:08:58;4.22;;;1.98;;
25657;SDS011;13517;59.320;18.042;2023-04-06T10:11:24;5.90;;;2.38;;
25657;SDS011;13517;59.320;18.042;2023-04-06T10:13:49;3.97;;;2.10;;
25657;SDS011;13517;59.320;18.042;2023-04-06T10:16:15;3.40;;;2.40;;
25657;SDS011;13517;59.320;18.042;2023-04-06T10:18:42;7.70;;;2.65;;
25657;SDS011;13517;59.320;18.042;2023-04-06T10:21:11;5.15;;;2.50;;
25657;SDS011;13517;59.320;18.042;2023-04-06T10:23:45;2.63;;;2.25;;
25657;SDS011;13517;59.320;18.042;2023-04-06T10:26:13;4.82;;;2.08;;
25657;SDS011;13517;59.320;18.042;2023-04-06T10:28:40;3.92;;;2.55;;
25657;SDS011;13517;59.320;18.042;2023-04-06T10:31:06;5.25;;;2.47;;
25657;SDS011;13517;59.320;18.042;2023-04-06T10:33:31;4.82;;;2.35;;
25657;SDS011;13517;59.320;18.042;2023-04-06T10:35:57;5.82;;;2.72;;
25657;SDS011;13517;59.320;18.042;2023-04-06T10:38:35;4.75;;;2.67;;
25657;SDS011;13517;59.320;18.042;2023-04-06T10:41:04;5.10;;;2.42;;
25657;SDS011;13517;59.320;18.042;2023-04-06T10:43:32;4.50;;;2.45;;
25657;SDS011;13517;59.320;18.042;2023-04-06T10:45:59;2.88;;;2.08;;
25657;SDS011;13517;59.320;18.042;2023-04-06T10:48:25;8.45;;;2.40;;
25657;SDS011;13517;59.320;18.042;2023-04-06T10:50:52;4.60;;;2.30;;
25657;SDS011;13517;59.320;18.042;2023-04-06T10:53:24;2.85;;;2.03;;
25657;SDS011;13517;59.320;18.042;2023-04-06T10:55:50;5.55;;;2.20;;
25657;SDS011;13517;59.320;18.042;2023-04-06T10:58:15;4.45;;;2.40;;
25657;SDS011;13517;59.320;18.042;2023-04-06T11:00:47;6.35;;;2.40;;
25657;SDS011;13517;59.320;18.042;2023-04-06T11:03:13;2.70;;;2.05;;
25657;SDS011;13517;59.320;18.042;2023-04-06T11:05:38;2.83;;;2.22;;
25657;SDS011;13517;59.320;18.042;2023-04-06T11:08:08;3.03;;;2.15;;
25657;SDS011;13517;59.320;18.042;2023-04-06T11:10:33;5.30;;;2.38;;
25657;SDS011;13517;59.320;18.042;2023-04-06T11:12:58;5.90;;;2.35;;
25657;SDS011;13517;59.320;18.042;2023-04-06T11:15:24;3.53;;;2.13;;
25657;SDS011;13517;59.320;18.042;2023-04-06T11:17:49;5.53;;;2.42;;
25657;SDS011;13517;59.320;18.042;2023-04-06T11:20:14;5.50;;;2.15;;
25657;SDS011;13517;59.320;18.042;2023-04-06T11:22:49;4.00;;;2.28;;
25657;SDS011;13517;59.320;18.042;2023-04-06T11:25:15;2.85;;;2.05;;
25657;SDS011;13517;59.320;18.042;2023-04-06T11:27:41;4.70;;;2.30;;
25657;SDS011;13517;59.320;18.042;2023-04-06T11:30:09;5.85;;;2.63;;
25657;SDS011;13517;59.320;18.042;2023-04-06T11:32:41;2.97;;;2.40;;
25657;SDS011;13517;59.320;18.042;2023-04-06T11:35:27;4.50;;;2.35;;
25657;SDS011;13517;59.320;18.042;2023-04-06T11:37:55;5.07;;;2.67;;
25657;SDS011;13517;59.320;18.042;2023-04-06T11:40:21;5.22;;;2.42;;
25657;SDS011;13517;59.320;18.042;2023-04-06T11:42:53;4.40;;;2.33;;
25657;SDS011;13517;59.320;18.042;2023-04-06T11:45:19;4.75;;;2.53;;
25657;SDS011;13517;59.320;18.042;2023-04-06T11:47:44;2.53;;;1.90;;
25657;SDS011;13517;59.320;18.042;2023-04-06T11:50:10;5.93;;;2.47;;
25657;SDS011;13517;59.320;18.042;2023-04-06T11:52:36;5.30;;;2.15;;
25657;SDS011;13517;59.320;18.042;2023-04-06T11:55:13;8.27;;;2.50;;
25657;SDS011;13517;59.320;18.042;2023-04-06T11:57:39;4.63;;;2.35;;
25657;SDS011;13517;59.320;18.042;2023-04-06T12:00:05;4.72;;;2.50;;
25657;SDS011;13517;59.320;18.042;2023-04-06T12:02:31;6.25;;;2.65;;
25657;SDS011;13517;59.320;18.042;2023-04-06T12:04:57;5.53;;;2.40;;
25657;SDS011;13517;59.320;18.042;2023-04-06T12:07:22;4.50;;;2.30;;
25657;SDS011;13517;59.320;18.042;2023-04-06T12:09:47;4.35;;;2.35;;
25657;SDS011;13517;59.320;18.042;2023-04-06T12:12:13;4.03;;;2.70;;
25657;SDS011;13517;59.320;18.042;2023-04-06T12:14:38;3.75;;;2.40;;
25657;SDS011;13517;59.320;18.042;2023-04-06T12:17:03;6.63;;;2.45;;
25657;SDS011;13517;59.320;18.042;2023-04-06T12:19:28;3.13;;;2.42;;
25657;SDS011;13517;59.320;18.042;2023-04-06T12:21:54;4.85;;;2.60;;
25657;SDS011;13517;59.320;18.042;2023-04-06T12:24:19;3.20;;;2.00;;
25657;SDS011;13517;59.320;18.042;2023-04-06T12:26:45;4.43;;;2.35;;
25657;SDS011;13517;59.320;18.042;2023-04-06T12:29:11;9.18;;;2.58;;
25657;SDS011;13517;59.320;18.042;2023-04-06T12:31:38;8.90;;;2.42;;
25657;SDS011;13517;59.320;18.042;2023-04-06T12:34:05;4.90;;;2.60;;
25657;SDS011;13517;59.320;18.042;2023-04-06T12:36:30;3.75;;;2.15;;
25657;SDS011;13517;59.320;18.042;2023-04-06T12:38:56;5.25;;;2.72;;
25657;SDS011;13517;59.320;18.042;2023-04-06T12:41:21;8.48;;;3.63;;
25657;SDS011;13517;59.320;18.042;2023-04-06T12:43:46;3.95;;;2.53;;
25657;SDS011;13517;59.320;18.042;2023-04-06T12:46:13;6.85;;;2.42;;
25657;SDS011;13517;59.320;18.042;2023-04-06T12:48:38;5.40;;;2.55;;
25657;SDS011;13517;59.320;18.042;2023-04-06T12:51:04;4.53;;;2.67;;
25657;SDS011;13517;59.320;18.042;2023-04-06T12:53:30;7.03;;;2.50;;
25657;SDS011;13517;59.320;18.042;2023-04-06T12:55:55;11.25;;;2.38;;
25657;SDS011;13517;59.320;18.042;2023-04-06T12:58:21;10.02;;;2.72;;
25657;SDS011;13517;59.320;18.042;2023-04-06T13:00:47;9.50;;;2.67;;
25657;SDS011;13517;59.320;18.042;2023-04-06T13:03:13;4.60;;;2.50;;
25657;SDS011;13517;59.320;18.042;2023-04-06T13:05:48;6.57;;;2.38;;
25657;SDS011;13517;59.320;18.042;2023-04-06T13:08:14;7.47;;;2.60;;
25657;SDS011;13517;59.320;18.042;2023-04-06T13:10:49;5.78;;;2.63;;
25657;SDS011;13517;59.320;18.042;2023-04-06T13:13:14;5.07;;;2.10;;
25657;SDS011;13517;59.320;18.042;2023-04-06T13:15:40;4.25;;;2.40;;
25657;SDS011;13517;59.320;18.042;2023-04-06T13:18:06;5.55;;;2.30;;
25657;SDS011;13517;59.320;18.042;2023-04-06T13:20:31;5.18;;;2.45;;
25657;SDS011;13517;59.320;18.042;2023-04-06T13:22:57;5.35;;;2.42;;
25657;SDS011;13517;59.320;18.042;2023-04-06T13:25:22;7.22;;;2.70;;
25657;SDS011;13517;59.320;18.042;2023-04-06T13:27:47;4.35;;;2.58;;
25657;SDS011;13517;59.320;18.042;2023-04-06T13:30:13;6.70;;;2.42;;
25657;SDS011;13517;59.320;18.042;2023-04-06T13:32:39;3.97;;;2.30;;
25657;SDS011;13517;59.320;18.042;2023-04-06T13:35:05;6.15;;;2.40;;
25657;SDS011;13517;59.320;18.042;2023-04-06T13:37:31;4.82;;;2.40;;
25657;SDS011;13517;59.320;18.042;2023-04-06T13:39:56;5.90;;;2.70;;
25657;SDS011;13517;59.320;18.042;2023-04-06T13:42:22;5.10;;;2.42;;
25657;SDS011;13517;59.320;18.042;2023-04-06T13:44:48;4.10;;;2.53;;
25657;SDS011;13517;59.320;18.042;2023-04-06T13:47:15;9.30;;;2.75;;
25657;SDS011;13517;59.320;18.042;2023-04-06T13:49:40;4.28;;;2.40;;
25657;SDS011;13517;59.320;18.042;2023-04-06T13:52:06;9.52;;;2.63;;
25657;SDS011;13517;59.320;18.042;2023-04-06T13:54:31;4.93;;;2.70;;
25657;SDS011;13517;59.320;18.042;2023-04-06T13:56:57;6.53;;;3.78;;
25657;SDS011;13517;59.320;18.042;2023-04-06T13:59:22;6.68;;;2.63;;
25657;SDS011;13517;59.320;18.042;2023-04-06T14:01:48;10.85;;;2.60;;
25657;SDS011;13517;59.320;18.042;2023-04-06T14:04:13;4.40;;;2.95;;
25657;SDS011;13517;59.320;18.042;2023-04-06T14:06:38;4.30;;;2.50;;
25657;SDS011;13517;59.320;18.042;2023-04-06T14:09:03;6.38;;;2.30;;
25657;SDS011;13517;59.320;18.042;2023-04-06T14:11:29;6.28;;;2.20;;
25657;SDS011;13517;59.320;18.042;2023-04-06T14:13:54;4.03;;;2.40;;
25657;SDS011;13517;59.320;18.042;2023-04-06T14:16:20;9.35;;;2.80;;
25657;SDS011;13517;59.320;18.042;2023-04-06T14:18:46;4.50;;;2.40;;
25657;SDS011;13517;59.320;18.042;2023-04-06T14:21:11;3.83;;;2.40;;
25657;SDS011;13517;59.320;18.042;2023-04-06T14:23:36;4.03;;;2.50;;
25657;SDS011;13517;59.320;18.042;2023-04-06T14:28:28;5.15;;;2.40;;
25657;SDS011;13517;59.320;18.042;2023-04-06T14:30:53;3.70;;;2.45;;
25657;SDS011;13517;59.320;18.042;2023-04-06T14:33:19;7.05;;;2.42;;
25657;SDS011;13517;59.320;18.042;2023-04-06T14:35:44;5.40;;;2.47;;